Weather at Jordan Hospital Helipad

Public forecast

Using degrees Celsius for public forecast. Weather courtesy of forecast.io.

Closest aviation weather report (METAR) to Jordan Hospital Helipad

Closest report is Amman Civil (Marka International) Airport, 4.8 nm (8.9 km) E.

2024/05/19 07:00 (retrieved 16 minutes ago)

OJAM 190700Z 24005KT 5000 HZ NSC 28/05 Q1017 NOSIG

Closest aviation forecast (TAF) to Jordan Hospital Helipad

Closest forecast is Amman Civil (Marka International) Airport, 4.8 nm (8.9 km) E.

2024/05/19 06:00 (retrieved 1 hour ago)

TAF OJAM 190500Z 1906/2012 28010KT 5000 HZ NSC TEMPO 1910/1915 29014KT